Time;durP1;ratioP1;P1;durP2;ratioP2;P2;SDS_P1;SDS_P2;PMS_P1;PMS_P2;Temp;Humidity;BMP_temperature;BMP_pressure;BME280_temperature;BME280_humidity;BME280_pressure;Samples;Min_cycle;Max_cycle;Signal;HPM_P1;HPM_P2
2023/12/30 00:01:01;;;;;;;2.90;2.60;;;;;;;;;;4991672;28;20211;-34
2023/12/30 00:03:29;;;;;;;3.90;2.70;;;;;;;;;;4994899;28;20345;-30
2023/12/30 00:05:56;;;;;;;3.03;2.17;;;;;;;;;;4992135;28;20259;-32
2023/12/30 00:08:23;;;;;;;6.03;2.20;;;;;;;;;;4987755;28;20212;-35
2023/12/30 00:10:50;;;;;;;4.07;2.60;;;;;;;;;;4993616;28;20240;-33
2023/12/30 00:13:19;;;;;;;2.90;2.13;;;;;;;;;;4996276;28;20302;-33
2023/12/30 00:15:46;;;;;;;2.80;2.07;;;;;;;;;;4992562;28;20244;-37
2023/12/30 00:18:14;;;;;;;3.73;2.10;;;;;;;;;;4980295;28;20234;-32
2023/12/30 00:20:42;;;;;;;3.73;2.37;;;;;;;;;;4996128;28;20291;-32
2023/12/30 00:23:09;;;;;;;2.40;1.50;;;;;;;;;;4988005;28;20295;-37
2023/12/30 00:25:36;;;;;;;2.50;1.93;;;;;;;;;;4988217;28;20231;-36
2023/12/30 00:28:03;;;;;;;1.77;1.67;;;;;;;;;;4991659;28;20259;-32
2023/12/30 00:30:32;;;;;;;2.00;1.80;;;;;;;;;;4998727;28;20204;-30
2023/12/30 00:32:59;;;;;;;1.87;1.70;;;;;;;;;;4984797;28;20216;-32
2023/12/30 00:35:26;;;;;;;3.10;2.30;;;;;;;;;;4996760;28;20321;-31
2023/12/30 00:37:54;;;;;;;5.50;2.97;;;;;;;;;;4999032;28;20243;-35
2023/12/30 00:40:21;;;;;;;6.10;3.20;;;;;;;;;;4991791;28;20303;-36
2023/12/30 00:42:48;;;;;;;7.33;2.70;;;;;;;;;;4989512;28;20214;-36
2023/12/30 00:45:15;;;;;;;3.57;2.10;;;;;;;;;;4990852;28;20255;-35
2023/12/30 00:47:44;;;;;;;5.23;2.53;;;;;;;;;;4990586;28;20214;-33
2023/12/30 00:50:11;;;;;;;2.60;2.00;;;;;;;;;;4984779;28;20282;-34
2023/12/30 00:52:38;;;;;;;1.93;1.57;;;;;;;;;;4978294;28;20252;-35
2023/12/30 00:55:06;;;;;;;3.33;2.40;;;;;;;;;;4986457;28;20310;-31
2023/12/30 00:57:33;;;;;;;3.43;2.30;;;;;;;;;;4982124;28;20322;-38
2023/12/30 01:00:00;;;;;;;5.53;2.60;;;;;;;;;;4987295;28;20246;-37
2023/12/30 01:02:27;;;;;;;2.90;2.40;;;;;;;;;;4987153;28;20208;-34
2023/12/30 01:04:56;;;;;;;3.67;2.40;;;;;;;;;;4989945;28;20223;-33
2023/12/30 01:07:23;;;;;;;4.57;2.60;;;;;;;;;;4990198;28;20227;-32
2023/12/30 01:09:50;;;;;;;4.50;2.10;;;;;;;;;;4981108;28;20215;-31
2023/12/30 01:12:18;;;;;;;2.17;1.90;;;;;;;;;;4988924;28;20231;-31
2023/12/30 01:14:45;;;;;;;2.53;1.90;;;;;;;;;;4990796;28;20234;-34
2023/12/30 01:17:12;;;;;;;2.23;1.70;;;;;;;;;;4991044;28;20223;-30
2023/12/30 01:19:39;;;;;;;1.67;1.57;;;;;;;;;;4987366;28;20208;-36
2023/12/30 01:22:08;;;;;;;1.87;1.60;;;;;;;;;;4985941;28;20335;-35
2023/12/30 01:24:35;;;;;;;1.70;1.53;;;;;;;;;;4984108;28;20227;-36
2023/12/30 01:27:02;;;;;;;2.30;1.87;;;;;;;;;;4992881;28;20273;-29
2023/12/30 01:29:29;;;;;;;1.90;1.70;;;;;;;;;;4991233;28;20200;-37
2023/12/30 01:31:57;;;;;;;3.87;1.90;;;;;;;;;;4988794;28;20208;-35
2023/12/30 01:34:24;;;;;;;4.53;1.90;;;;;;;;;;4985201;28;20322;-30
2023/12/30 01:36:51;;;;;;;3.30;1.87;;;;;;;;;;4991306;28;20259;-33
2023/12/30 01:39:19;;;;;;;3.97;2.07;;;;;;;;;;4989485;28;20312;-32
2023/12/30 01:41:49;;;;;;;2.00;1.90;;;;;;;;;;4981340;28;20319;-30
2023/12/30 01:44:16;;;;;;;1.90;1.70;;;;;;;;;;4986323;28;20230;-35
2023/12/30 01:46:43;;;;;;;2.20;2.00;;;;;;;;;;4989158;28;20235;-33
2023/12/30 01:49:10;;;;;;;2.90;2.07;;;;;;;;;;4986255;28;20218;-36
2023/12/30 01:51:37;;;;;;;4.97;1.80;;;;;;;;;;4981069;28;20228;-33
2023/12/30 01:54:05;;;;;;;2.17;1.80;;;;;;;;;;4978897;28;20255;-37
2023/12/30 01:56:34;;;;;;;3.17;1.63;;;;;;;;;;4988062;28;20216;-33
2023/12/30 01:59:01;;;;;;;2.70;1.67;;;;;;;;;;4988374;28;20220;-35
2023/12/30 02:01:29;;;;;;;1.73;1.60;;;;;;;;;;4978499;28;20316;-35
2023/12/30 02:03:56;;;;;;;2.67;1.80;;;;;;;;;;4987010;28;20216;-32
2023/12/30 02:06:23;;;;;;;2.20;1.57;;;;;;;;;;4987159;28;20240;-34
2023/12/30 02:08:51;;;;;;;1.70;1.60;;;;;;;;;;4987894;28;20315;-35
2023/12/30 02:11:18;;;;;;;1.80;1.70;;;;;;;;;;4984060;28;20295;-34
2023/12/30 02:13:48;;;;;;;3.07;1.63;;;;;;;;;;4987775;28;20319;-31
2023/12/30 02:16:15;;;;;;;1.20;1.20;;;;;;;;;;4988386;28;20212;-33
2023/12/30 02:18:43;;;;;;;1.67;1.20;;;;;;;;;;4982680;28;20204;-34
2023/12/30 02:21:10;;;;;;;1.93;1.73;;;;;;;;;;4981674;28;20254;-31
2023/12/30 02:23:38;;;;;;;1.60;1.50;;;;;;;;;;4975451;28;20204;-35
2023/12/30 02:26:07;;;;;;;2.80;1.67;;;;;;;;;;4988146;28;20322;-35
2023/12/30 02:28:34;;;;;;;1.90;1.37;;;;;;;;;;4987607;28;20212;-37
2023/12/30 02:31:03;;;;;;;4.40;1.77;;;;;;;;;;4982749;28;20281;-29
2023/12/30 02:33:30;;;;;;;1.60;1.30;;;;;;;;;;4984881;28;20211;-35
2023/12/30 02:35:58;;;;;;;1.00;1.00;;;;;;;;;;4993149;28;20261;-34
2023/12/30 02:38:25;;;;;;;2.20;1.50;;;;;;;;;;4983219;28;20244;-29
2023/12/30 02:40:53;;;;;;;1.27;1.20;;;;;;;;;;4986008;28;20243;-31
2023/12/30 02:43:20;;;;;;;1.60;1.30;;;;;;;;;;4986020;28;20222;-38
2023/12/30 02:45:48;;;;;;;1.77;1.40;;;;;;;;;;4984517;28;20260;-35
2023/12/30 02:48:15;;;;;;;1.33;1.10;;;;;;;;;;4976380;28;20573;-33
2023/12/30 02:50:42;;;;;;;1.63;1.33;;;;;;;;;;4981835;28;20239;-32
2023/12/30 02:53:09;;;;;;;1.73;1.43;;;;;;;;;;4978521;28;20211;-32
2023/12/30 02:55:36;;;;;;;1.23;1.10;;;;;;;;;;4988011;28;20319;-32
2023/12/30 02:58:05;;;;;;;1.60;1.50;;;;;;;;;;4990668;28;20259;-33
2023/12/30 03:00:32;;;;;;;1.87;1.70;;;;;;;;;;4990570;28;20208;-34
2023/12/30 03:02:59;;;;;;;1.90;1.63;;;;;;;;;;4988374;28;20211;-36
2023/12/30 03:05:27;;;;;;;3.33;1.67;;;;;;;;;;4990560;28;20227;-33
2023/12/30 03:07:57;;;;;;;1.60;1.30;;;;;;;;;;4991032;28;20216;-33
2023/12/30 03:10:24;;;;;;;1.70;1.60;;;;;;;;;;4990805;28;20335;-36
2023/12/30 03:12:51;;;;;;;2.60;1.30;;;;;;;;;;4980907;28;20231;-29
2023/12/30 03:15:21;;;;;;;1.63;1.20;;;;;;;;;;4990187;28;20259;-34
2023/12/30 03:17:49;;;;;;;2.00;1.20;;;;;;;;;;4990903;28;20235;-33
2023/12/30 03:20:16;;;;;;;1.13;1.03;;;;;;;;;;4981730;28;20208;-36
2023/12/30 03:22:43;;;;;;;1.23;1.20;;;;;;;;;;4979627;28;20224;-35
2023/12/30 03:25:10;;;;;;;1.50;0.93;;;;;;;;;;4986141;28;20246;-32
2023/12/30 03:27:38;;;;;;;0.80;0.80;;;;;;;;;;4990391;28;20211;-34
2023/12/30 03:30:05;;;;;;;2.00;0.90;;;;;;;;;;4990854;28;20222;-36
2023/12/30 03:32:34;;;;;;;1.43;1.17;;;;;;;;;;4983118;28;20254;-31
2023/12/30 03:35:04;;;;;;;1.50;1.40;;;;;;;;;;4991225;28;20239;-37
2023/12/30 03:37:32;;;;;;;1.57;1.17;;;;;;;;;;4989760;28;20231;-40
2023/12/30 03:39:59;;;;;;;2.17;1.00;;;;;;;;;;4978521;28;20213;-37
2023/12/30 03:42:27;;;;;;;2.03;1.37;;;;;;;;;;4986424;28;20216;-35
2023/12/30 03:44:54;;;;;;;1.60;1.13;;;;;;;;;;4992113;28;20228;-30
2023/12/30 03:47:21;;;;;;;1.60;1.27;;;;;;;;;;4992970;28;20219;-32
2023/12/30 03:49:49;;;;;;;1.17;1.07;;;;;;;;;;4981085;28;20204;-35
2023/12/30 03:52:17;;;;;;;2.03;1.27;;;;;;;;;;4978564;28;20212;-34
2023/12/30 03:54:44;;;;;;;1.37;1.20;;;;;;;;;;4984397;28;20255;-33
2023/12/30 03:57:12;;;;;;;1.30;0.80;;;;;;;;;;4990002;28;20235;-33
2023/12/30 03:59:39;;;;;;;1.10;1.00;;;;;;;;;;4989893;28;20216;-35
2023/12/30 04:02:06;;;;;;;1.33;1.27;;;;;;;;;;4980658;28;20215;-33
2023/12/30 04:04:33;;;;;;;0.97;0.93;;;;;;;;;;4987890;28;20255;-34
2023/12/30 04:07:02;;;;;;;1.50;1.23;;;;;;;;;;4989494;28;20207;-34
2023/12/30 04:09:29;;;;;;;0.90;0.90;;;;;;;;;;4980258;28;20349;-32
2023/12/30 04:11:56;;;;;;;1.20;1.10;;;;;;;;;;4986174;28;20302;-32
2023/12/30 04:14:23;;;;;;;2.13;1.10;;;;;;;;;;4988935;28;20294;-32
2023/12/30 04:16:50;;;;;;;1.00;1.00;;;;;;;;;;4983705;28;20349;-36
2023/12/30 04:19:18;;;;;;;1.17;1.07;;;;;;;;;;4984783;28;20219;-36
2023/12/30 04:21:46;;;;;;;2.50;0.90;;;;;;;;;;4989709;28;20220;-35
2023/12/30 04:24:15;;;;;;;1.10;1.00;;;;;;;;;;4983453;28;20236;-34
2023/12/30 04:26:43;;;;;;;1.00;0.90;;;;;;;;;;4988828;28;20235;-34
2023/12/30 04:29:10;;;;;;;2.40;1.10;;;;;;;;;;4989794;28;20215;-36
2023/12/30 04:31:37;;;;;;;1.03;0.90;;;;;;;;;;4986402;28;20207;-33
2023/12/30 04:34:05;;;;;;;1.80;1.13;;;;;;;;;;4984746;28;20318;-31
2023/12/30 04:39:00;;;;;;;0.80;0.80;;;;;;;;;;5020619;28;20294;-29
2023/12/30 04:41:30;;;;;;;1.10;1.00;;;;;;;;;;5004082;28;20218;-38
2023/12/30 04:43:57;;;;;;;1.00;0.83;;;;;;;;;;4996368;28;20234;-35
2023/12/30 04:46:24;;;;;;;2.50;0.87;;;;;;;;;;5008231;28;20211;-37
2023/12/30 04:48:54;;;;;;;0.70;0.70;;;;;;;;;;5009384;28;20277;-35
2023/12/30 04:51:21;;;;;;;2.13;0.90;;;;;;;;;;5001324;28;20690;-36
2023/12/30 04:53:48;;;;;;;1.43;1.00;;;;;;;;;;4995003;28;20294;-33
2023/12/30 04:56:16;;;;;;;1.40;1.10;;;;;;;;;;5007196;28;20294;-33
2023/12/30 04:58:45;;;;;;;1.50;1.10;;;;;;;;;;5008442;28;20255;-32
2023/12/30 05:01:12;;;;;;;1.47;0.90;;;;;;;;;;5000240;28;20204;-35
2023/12/30 05:03:42;;;;;;;2.07;1.10;;;;;;;;;;5004223;28;20207;-32
2023/12/30 05:06:09;;;;;;;2.50;0.90;;;;;;;;;;5009496;28;20265;-34
2023/12/30 05:08:37;;;;;;;1.43;1.00;;;;;;;;;;5003784;28;20287;-33
2023/12/30 05:11:07;;;;;;;1.40;1.30;;;;;;;;;;5002399;28;20214;-35
2023/12/30 05:13:34;;;;;;;0.83;0.80;;;;;;;;;;5008382;28;20215;-32
2023/12/30 05:16:03;;;;;;;1.87;0.83;;;;;;;;;;5006449;28;20261;-33
2023/12/30 05:18:30;;;;;;;0.67;0.67;;;;;;;;;;5005729;28;20227;-37
2023/12/30 05:20:57;;;;;;;0.83;0.83;;;;;;;;;;5009147;28;20206;-35
2023/12/30 05:23:24;;;;;;;0.80;0.80;;;;;;;;;;5002127;28;20227;-40
2023/12/30 05:25:51;;;;;;;0.70;0.70;;;;;;;;;;5008605;28;20226;-35
2023/12/30 05:28:18;;;;;;;2.37;0.80;;;;;;;;;;5008358;28;20270;-37
2023/12/30 05:30:46;;;;;;;0.73;0.73;;;;;;;;;;5002534;28;20211;-34
2023/12/30 05:33:14;;;;;;;1.53;0.87;;;;;;;;;;5000739;28;20199;-31
2023/12/30 05:35:41;;;;;;;2.87;0.90;;;;;;;;;;5010139;28;20227;-36
2023/12/30 05:38:12;;;;;;;0.90;0.90;;;;;;;;;;5008552;28;20315;-36
2023/12/30 05:40:39;;;;;;;1.33;0.60;;;;;;;;;;4995891;28;20720;-33
2023/12/30 05:43:06;;;;;;;0.70;0.70;;;;;;;;;;5002912;28;20226;-35
2023/12/30 05:45:33;;;;;;;2.63;0.80;;;;;;;;;;5008902;28;20233;-34
2023/12/30 05:48:02;;;;;;;3.90;0.70;;;;;;;;;;5002375;28;20298;-33
2023/12/30 05:50:30;;;;;;;2.50;0.97;;;;;;;;;;5003773;28;20199;-36
2023/12/30 05:52:57;;;;;;;1.03;0.60;;;;;;;;;;5002323;28;20267;-34
2023/12/30 05:55:25;;;;;;;0.80;0.80;;;;;;;;;;5005520;28;20227;-36
2023/12/30 05:57:52;;;;;;;0.80;0.80;;;;;;;;;;5008822;28;20310;-36
2023/12/30 06:00:20;;;;;;;2.03;0.80;;;;;;;;;;5008629;28;20402;-36
2023/12/30 06:02:48;;;;;;;0.77;0.60;;;;;;;;;;4992633;28;20207;-33
2023/12/30 06:05:15;;;;;;;2.33;0.50;;;;;;;;;;5003630;28;20242;-32
2023/12/30 06:07:44;;;;;;;2.93;0.90;;;;;;;;;;5011271;28;20207;-34
2023/12/30 06:10:11;;;;;;;0.97;0.73;;;;;;;;;;5004833;28;20210;-31
2023/12/30 06:12:38;;;;;;;0.90;0.70;;;;;;;;;;5006429;28;20282;-33
2023/12/30 06:15:06;;;;;;;0.80;0.80;;;;;;;;;;5011981;28;20227;-29
2023/12/30 06:17:33;;;;;;;1.30;0.80;;;;;;;;;;5011825;28;20477;-35
2023/12/30 06:20:00;;;;;;;1.83;0.70;;;;;;;;;;5008506;28;20203;-34
2023/12/30 06:22:27;;;;;;;1.03;0.60;;;;;;;;;;5006115;28;20623;-34
2023/12/30 06:24:56;;;;;;;1.80;0.67;;;;;;;;;;5009209;28;20277;-34
2023/12/30 06:27:23;;;;;;;0.60;0.60;;;;;;;;;;5012792;28;20314;-36
2023/12/30 06:29:50;;;;;;;0.57;0.53;;;;;;;;;;5012330;28;20196;-30
2023/12/30 06:32:17;;;;;;;0.70;0.70;;;;;;;;;;5009022;28;20231;-34
2023/12/30 06:34:45;;;;;;;3.57;1.10;;;;;;;;;;5007275;28;20345;-34
2023/12/30 06:37:12;;;;;;;3.23;1.10;;;;;;;;;;5013013;28;20226;-33
2023/12/30 06:39:39;;;;;;;1.20;0.90;;;;;;;;;;5004732;28;20234;-34
2023/12/30 06:42:08;;;;;;;1.70;1.10;;;;;;;;;;5004319;28;20212;-33
2023/12/30 06:44:35;;;;;;;0.97;0.83;;;;;;;;;;5011962;28;20233;-37
2023/12/30 06:47:02;;;;;;;1.07;1.00;;;;;;;;;;5014406;28;20199;-35
2023/12/30 06:49:29;;;;;;;1.53;1.40;;;;;;;;;;5007553;28;20204;-36
2023/12/30 06:51:57;;;;;;;0.70;0.70;;;;;;;;;;5012355;28;20208;-36
2023/12/30 06:54:25;;;;;;;1.10;1.03;;;;;;;;;;5002461;28;20227;-35
2023/12/30 06:56:53;;;;;;;1.00;0.60;;;;;;;;;;5011347;28;20218;-36
2023/12/30 06:59:21;;;;;;;1.10;0.77;;;;;;;;;;5011697;28;20309;-37
2023/12/30 07:01:48;;;;;;;1.80;1.10;;;;;;;;;;5004318;28;20299;-34
2023/12/30 07:04:15;;;;;;;2.57;0.90;;;;;;;;;;5005197;28;20233;-37
2023/12/30 07:06:43;;;;;;;1.83;0.90;;;;;;;;;;5010915;28;20206;-33
2023/12/30 07:09:10;;;;;;;1.23;0.97;;;;;;;;;;5011972;28;20234;-34
2023/12/30 07:11:37;;;;;;;0.80;0.80;;;;;;;;;;4999771;28;20204;-29
2023/12/30 07:14:04;;;;;;;1.10;0.60;;;;;;;;;;5005942;28;20650;-33
2023/12/30 07:16:33;;;;;;;0.50;0.50;;;;;;;;;;5010819;28;20207;-34
2023/12/30 07:19:00;;;;;;;1.80;0.77;;;;;;;;;;5000553;28;20223;-34
2023/12/30 07:21:27;;;;;;;0.90;0.70;;;;;;;;;;5000294;28;20255;-33
2023/12/30 07:23:54;;;;;;;0.90;0.90;;;;;;;;;;5003376;28;20199;-30
2023/12/30 07:26:21;;;;;;;0.67;0.60;;;;;;;;;;5013294;28;20500;-32
2023/12/30 07:28:48;;;;;;;1.73;0.70;;;;;;;;;;5012725;28;20613;-34
2023/12/30 07:31:16;;;;;;;0.90;0.73;;;;;;;;;;5013244;28;20204;-34
2023/12/30 07:33:44;;;;;;;1.37;0.60;;;;;;;;;;5001242;28;20204;-32
2023/12/30 07:36:11;;;;;;;1.00;0.90;;;;;;;;;;5009128;28;20294;-32
2023/12/30 07:38:38;;;;;;;0.70;0.70;;;;;;;;;;5010587;28;20265;-36
2023/12/30 07:41:06;;;;;;;0.60;0.60;;;;;;;;;;5004808;28;20662;-36
2023/12/30 07:43:33;;;;;;;1.70;0.80;;;;;;;;;;5001697;28;20276;-33
2023/12/30 07:46:00;;;;;;;0.80;0.80;;;;;;;;;;5005099;28;20223;-31
2023/12/30 07:48:29;;;;;;;2.03;0.80;;;;;;;;;;5013217;28;20235;-35
2023/12/30 07:50:57;;;;;;;0.70;0.70;;;;;;;;;;5007977;28;20208;-36
2023/12/30 07:53:24;;;;;;;1.53;1.00;;;;;;;;;;4998853;28;20204;-32
2023/12/30 07:55:52;;;;;;;2.30;1.03;;;;;;;;;;5009994;28;20255;-37
2023/12/30 07:58:19;;;;;;;3.07;0.80;;;;;;;;;;5012830;28;20219;-32
2023/12/30 08:00:46;;;;;;;0.83;0.70;;;;;;;;;;5008004;28;20239;-33
2023/12/30 08:03:13;;;;;;;2.50;1.00;;;;;;;;;;5008057;28;20367;-34
2023/12/30 08:05:42;;;;;;;2.93;0.80;;;;;;;;;;5010453;28;20223;-34
2023/12/30 08:08:12;;;;;;;3.90;1.00;;;;;;;;;;5009488;28;20230;-35
2023/12/30 08:10:39;;;;;;;2.20;0.80;;;;;;;;;;4998153;28;20200;-36
2023/12/30 08:13:06;;;;;;;1.77;1.10;;;;;;;;;;5011749;28;20233;-30
2023/12/30 08:15:33;;;;;;;4.20;1.03;;;;;;;;;;5011164;28;20227;-33
2023/12/30 08:18:00;;;;;;;1.10;1.00;;;;;;;;;;5008993;28;20210;-36
2023/12/30 08:20:28;;;;;;;3.67;1.10;;;;;;;;;;5004743;28;20208;-33
2023/12/30 08:22:55;;;;;;;1.07;0.93;;;;;;;;;;5008923;28;20232;-36
2023/12/30 08:25:56;;;;;;;1.70;0.90;;;;;;;;;;5010589;28;20330;-32
2023/12/30 08:28:25;;;;;;;1.60;0.70;;;;;;;;;;5006950;28;20253;-33
2023/12/30 08:30:54;;;;;;;1.77;0.70;;;;;;;;;;5011904;28;20261;-30
2023/12/30 08:33:21;;;;;;;0.80;0.80;;;;;;;;;;5006503;28;20213;-33
2023/12/30 08:35:48;;;;;;;1.83;0.73;;;;;;;;;;5004832;28;20314;-31
2023/12/30 08:38:16;;;;;;;2.00;0.97;;;;;;;;;;5011224;28;20215;-33
2023/12/30 08:40:46;;;;;;;3.03;0.80;;;;;;;;;;5008346;28;20208;-35
2023/12/30 08:43:14;;;;;;;2.17;1.00;;;;;;;;;;5005094;28;20203;-34
2023/12/30 08:45:42;;;;;;;1.37;1.07;;;;;;;;;;5005713;28;20322;-35
2023/12/30 08:48:15;;;;;;;0.73;0.70;;;;;;;;;;5012568;28;20294;-35
2023/12/30 08:50:43;;;;;;;0.93;0.93;;;;;;;;;;5008285;28;20286;-32
2023/12/30 08:53:10;;;;;;;2.00;1.47;;;;;;;;;;5005708;28;20239;-34
2023/12/30 08:55:37;;;;;;;0.93;0.90;;;;;;;;;;5009374;28;20231;-33
2023/12/30 08:58:04;;;;;;;3.50;1.30;;;;;;;;;;5012428;28;20287;-35
2023/12/30 09:00:31;;;;;;;1.07;0.90;;;;;;;;;;5008141;28;20207;-36
2023/12/30 09:03:00;;;;;;;1.30;1.17;;;;;;;;;;5003327;28;20329;-32
2023/12/30 09:05:27;;;;;;;4.00;1.40;;;;;;;;;;5011729;28;20318;-37
2023/12/30 09:07:54;;;;;;;1.80;0.90;;;;;;;;;;5008260;28;20214;-33
2023/12/30 09:10:21;;;;;;;0.90;0.90;;;;;;;;;;5009565;28;20257;-33
2023/12/30 09:12:48;;;;;;;3.07;1.17;;;;;;;;;;5010290;28;20207;-34
2023/12/30 09:15:16;;;;;;;1.73;1.00;;;;;;;;;;5010876;28;20318;-33
2023/12/30 09:17:43;;;;;;;2.50;1.10;;;;;;;;;;5004302;28;20208;-34
2023/12/30 09:20:12;;;;;;;1.50;1.40;;;;;;;;;;5005120;28;20219;-32
2023/12/30 09:22:39;;;;;;;1.83;1.00;;;;;;;;;;5008897;28;20207;-36
2023/12/30 09:25:07;;;;;;;1.47;1.00;;;;;;;;;;5010837;28;20268;-35
2023/12/30 09:27:34;;;;;;;1.00;0.90;;;;;;;;;;5011599;28;20203;-35
2023/12/30 09:30:01;;;;;;;1.10;0.80;;;;;;;;;;5011155;28;20214;-32
2023/12/30 09:32:28;;;;;;;2.30;0.93;;;;;;;;;;5005919;28;20239;-33
2023/12/30 09:34:56;;;;;;;0.93;0.90;;;;;;;;;;5005721;28;20266;-33
2023/12/30 09:37:25;;;;;;;0.93;0.87;;;;;;;;;;5007123;28;20215;-37
2023/12/30 09:39:53;;;;;;;1.00;0.83;;;;;;;;;;5008460;28;20231;-31
2023/12/30 09:42:20;;;;;;;0.70;0.70;;;;;;;;;;5015774;28;20203;-33
2023/12/30 09:44:47;;;;;;;2.57;1.00;;;;;;;;;;5015346;28;20235;-37
2023/12/30 09:47:15;;;;;;;0.63;0.63;;;;;;;;;;5012656;28;20233;-31
2023/12/30 09:49:42;;;;;;;1.33;1.10;;;;;;;;;;4999006;28;20281;-35
2023/12/30 09:52:09;;;;;;;0.73;0.73;;;;;;;;;;5010129;28;20263;-36
2023/12/30 09:54:39;;;;;;;0.70;0.70;;;;;;;;;;5009010;28;20227;-31
2023/12/30 09:57:07;;;;;;;1.83;0.80;;;;;;;;;;5010109;28;20238;-33
2023/12/30 09:59:36;;;;;;;2.33;0.73;;;;;;;;;;5011044;28;20278;-37
2023/12/30 10:02:06;;;;;;;1.43;0.93;;;;;;;;;;5012633;28;20215;-31
2023/12/30 10:04:33;;;;;;;0.70;0.70;;;;;;;;;;5006116;28;20309;-33
2023/12/30 10:07:01;;;;;;;0.70;0.70;;;;;;;;;;5014314;28;20279;-32
2023/12/30 10:09:28;;;;;;;0.70;0.67;;;;;;;;;;5014475;28;20203;-31
2023/12/30 10:11:56;;;;;;;4.53;1.63;;;;;;;;;;5003674;28;20212;-34
2023/12/30 10:14:24;;;;;;;1.33;0.77;;;;;;;;;;5013980;28;20286;-32
2023/12/30 10:16:51;;;;;;;2.13;0.53;;;;;;;;;;5014889;28;20214;-35
2023/12/30 10:19:18;;;;;;;1.60;0.63;;;;;;;;;;5010813;28;20277;-33
2023/12/30 10:21:45;;;;;;;0.70;0.70;;;;;;;;;;5003886;28;20211;-33
2023/12/30 10:24:12;;;;;;;1.23;0.70;;;;;;;;;;5005673;28;20234;-31
2023/12/30 10:26:39;;;;;;;3.53;0.60;;;;;;;;;;5011675;28;20294;-31
2023/12/30 10:29:08;;;;;;;0.73;0.40;;;;;;;;;;5009982;28;20207;-32
2023/12/30 10:31:35;;;;;;;0.40;0.40;;;;;;;;;;5006902;28;20214;-31
2023/12/30 10:34:06;;;;;;;1.10;0.40;;;;;;;;;;5007817;28;20207;-33
2023/12/30 10:36:33;;;;;;;2.87;0.50;;;;;;;;;;5000528;28;20274;-36
2023/12/30 10:39:01;;;;;;;0.87;0.40;;;;;;;;;;5004620;28;20227;-32
2023/12/30 10:41:28;;;;;;;1.10;0.67;;;;;;;;;;5013354;28;20203;-37
2023/12/30 10:43:55;;;;;;;1.37;0.40;;;;;;;;;;5012744;28;20213;-36
2023/12/30 10:46:27;;;;;;;0.63;0.63;;;;;;;;;;5001267;28;20203;-33
2023/12/30 10:48:55;;;;;;;2.27;0.80;;;;;;;;;;5004354;28;20215;-35
2023/12/30 10:51:25;;;;;;;0.70;0.70;;;;;;;;;;5012892;28;20207;-36
2023/12/30 10:53:55;;;;;;;2.93;0.70;;;;;;;;;;5005161;28;20211;-33
2023/12/30 10:56:26;;;;;;;1.20;0.90;;;;;;;;;;5008751;28;20267;-33
2023/12/30 10:58:54;;;;;;;0.70;0.30;;;;;;;;;;5012291;28;20297;-30
2023/12/30 11:01:22;;;;;;;1.57;0.60;;;;;;;;;;5013477;28;20231;-34
2023/12/30 11:03:50;;;;;;;1.13;0.70;;;;;;;;;;5005789;28;20215;-32
2023/12/30 11:06:22;;;;;;;1.87;1.00;;;;;;;;;;5001930;28;20207;-31
2023/12/30 11:08:49;;;;;;;0.60;0.60;;;;;;;;;;5011859;28;20214;-32
2023/12/30 11:11:19;;;;;;;0.97;0.60;;;;;;;;;;5013922;28;20231;-37
2023/12/30 11:13:46;;;;;;;1.80;0.70;;;;;;;;;;5002936;28;20207;-34
2023/12/30 11:16:14;;;;;;;2.40;0.90;;;;;;;;;;5013550;28;20286;-32
2023/12/30 11:18:53;;;;;;;1.10;0.80;;;;;;;;;;5013056;28;20207;-31
2023/12/30 11:21:39;;;;;;;3.33;0.97;;;;;;;;;;4992784;28;20214;-39
2023/12/30 11:24:08;;;;;;;0.73;0.57;;;;;;;;;;5007232;28;20227;-32
2023/12/30 11:26:36;;;;;;;2.93;0.90;;;;;;;;;;5003696;28;20218;-31
2023/12/30 11:29:04;;;;;;;1.07;0.57;;;;;;;;;;5004746;28;20204;-35
2023/12/30 11:31:31;;;;;;;0.73;0.73;;;;;;;;;;5006768;28;20214;-38
2023/12/30 11:34:01;;;;;;;0.50;0.50;;;;;;;;;;5004056;28;20217;-36
2023/12/30 11:36:29;;;;;;;1.40;0.60;;;;;;;;;;5012969;28;20858;-37
2023/12/30 11:38:57;;;;;;;3.67;1.30;;;;;;;;;;5003350;28;20281;-41
2023/12/30 11:41:25;;;;;;;2.10;0.63;;;;;;;;;;5011567;28;20208;-35
2023/12/30 11:43:52;;;;;;;0.60;0.60;;;;;;;;;;5010412;28;20208;-35
2023/12/30 11:46:19;;;;;;;1.57;0.70;;;;;;;;;;5005931;28;20230;-35
2023/12/30 11:48:47;;;;;;;1.90;1.10;;;;;;;;;;4999927;28;20294;-36
2023/12/30 11:51:21;;;;;;;3.47;0.70;;;;;;;;;;5009194;28;20363;-31
2023/12/30 11:53:49;;;;;;;1.00;0.70;;;;;;;;;;5011650;28;20211;-37
2023/12/30 11:56:17;;;;;;;0.80;0.60;;;;;;;;;;5004845;28;20210;-34
2023/12/30 11:58:44;;;;;;;2.20;1.43;;;;;;;;;;5005960;28;20291;-33
2023/12/30 12:01:19;;;;;;;1.17;0.57;;;;;;;;;;5011396;28;20233;-32
2023/12/30 12:03:46;;;;;;;0.50;0.50;;;;;;;;;;5008574;28;20293;-38
2023/12/30 12:06:13;;;;;;;0.40;0.40;;;;;;;;;;5004261;28;20608;-30
2023/12/30 12:08:42;;;;;;;0.57;0.50;;;;;;;;;;5009810;28;20199;-37
2023/12/30 12:11:09;;;;;;;0.77;0.40;;;;;;;;;;5010652;28;20215;-31
2023/12/30 12:13:36;;;;;;;1.60;0.70;;;;;;;;;;5003137;28;20206;-35
2023/12/30 12:16:04;;;;;;;0.57;0.57;;;;;;;;;;4999399;28;20231;-35
2023/12/30 12:18:32;;;;;;;0.93;0.73;;;;;;;;;;5000109;28;20218;-32
2023/12/30 12:21:03;;;;;;;0.83;0.60;;;;;;;;;;5011600;28;20227;-35
2023/12/30 12:23:30;;;;;;;0.63;0.60;;;;;;;;;;5012149;28;20286;-29
2023/12/30 12:25:59;;;;;;;1.07;0.70;;;;;;;;;;5002438;28;20262;-35
2023/12/30 12:28:26;;;;;;;0.70;0.60;;;;;;;;;;5007014;28;20206;-34
2023/12/30 12:30:55;;;;;;;0.60;0.60;;;;;;;;;;5011703;28;20211;-35
2023/12/30 12:33:22;;;;;;;0.60;0.60;;;;;;;;;;5007730;28;20294;-31
2023/12/30 12:35:49;;;;;;;1.73;0.50;;;;;;;;;;4999891;28;20231;-31
2023/12/30 12:38:16;;;;;;;1.13;0.70;;;;;;;;;;5008549;28;20254;-32
2023/12/30 12:40:45;;;;;;;0.47;0.47;;;;;;;;;;5008686;28;20243;-33
2023/12/30 12:43:13;;;;;;;0.47;0.47;;;;;;;;;;5008187;28;20199;-35
2023/12/30 12:45:41;;;;;;;1.53;0.50;;;;;;;;;;5001022;28;20309;-37
2023/12/30 12:48:08;;;;;;;3.13;0.37;;;;;;;;;;5008588;28;20245;-31
2023/12/30 12:50:36;;;;;;;0.40;0.40;;;;;;;;;;5009802;28;20207;-34
2023/12/30 12:53:03;;;;;;;0.40;0.40;;;;;;;;;;5003176;28;20302;-32
2023/12/30 12:55:30;;;;;;;0.30;0.30;;;;;;;;;;5006711;28;20318;-33
2023/12/30 12:57:57;;;;;;;0.50;0.50;;;;;;;;;;5012223;28;20661;-35
2023/12/30 13:00:26;;;;;;;1.03;0.50;;;;;;;;;;5008109;28;20311;-32
2023/12/30 13:02:53;;;;;;;0.60;0.40;;;;;;;;;;5005741;28;20268;-35
2023/12/30 13:05:21;;;;;;;0.60;0.60;;;;;;;;;;5007701;28;20227;-31
2023/12/30 13:07:51;;;;;;;1.03;0.60;;;;;;;;;;5008760;28;20238;-29
2023/12/30 13:10:36;;;;;;;0.50;0.50;;;;;;;;;;5005364;28;20706;-37
2023/12/30 13:13:06;;;;;;;2.27;0.70;;;;;;;;;;5005237;28;20330;-33
2023/12/30 13:15:34;;;;;;;0.53;0.53;;;;;;;;;;5008281;28;20238;-33
2023/12/30 13:18:04;;;;;;;0.40;0.40;;;;;;;;;;5006413;28;20221;-35
2023/12/30 13:20:32;;;;;;;0.80;0.50;;;;;;;;;;5001284;28;20215;-35
2023/12/30 13:23:02;;;;;;;0.67;0.50;;;;;;;;;;5004988;28;20303;-32
2023/12/30 13:25:30;;;;;;;0.83;0.50;;;;;;;;;;4999138;28;20250;-32
2023/12/30 13:27:57;;;;;;;0.70;0.70;;;;;;;;;;5003721;28;20207;-35
2023/12/30 13:30:25;;;;;;;0.90;0.77;;;;;;;;;;5000637;28;20200;-31
2023/12/30 13:33:03;;;;;;;0.80;0.70;;;;;;;;;;5008179;28;20222;-32
2023/12/30 13:35:34;;;;;;;0.57;0.57;;;;;;;;;;5007843;28;20227;-34
2023/12/30 13:38:06;;;;;;;0.90;0.90;;;;;;;;;;5002788;28;20246;-37
2023/12/30 13:40:33;;;;;;;1.83;0.50;;;;;;;;;;5007164;28;20258;-35
2023/12/30 13:43:07;;;;;;;0.67;0.60;;;;;;;;;;5007099;28;20211;-36
2023/12/30 13:45:35;;;;;;;0.50;0.50;;;;;;;;;;5004191;28;20223;-34
2023/12/30 13:51:00;;;;;;;0.63;0.50;;;;;;;;;;4977264;28;20298;-35
2023/12/30 13:53:28;;;;;;;1.00;0.60;;;;;;;;;;5008273;28;20281;-33
2023/12/30 13:55:57;;;;;;;0.60;0.60;;;;;;;;;;5008005;28;20231;-32
2023/12/30 13:58:24;;;;;;;1.13;0.70;;;;;;;;;;5008349;28;20203;-34
2023/12/30 14:00:51;;;;;;;0.60;0.60;;;;;;;;;;5001996;28;20318;-35
2023/12/30 14:03:20;;;;;;;0.60;0.57;;;;;;;;;;5007938;28;20208;-33
2023/12/30 14:05:47;;;;;;;1.07;0.47;;;;;;;;;;5008802;28;20298;-38
2023/12/30 14:08:17;;;;;;;0.43;0.43;;;;;;;;;;5003737;28;20238;-34
2023/12/30 14:10:47;;;;;;;1.27;0.50;;;;;;;;;;5005569;28;20200;-33
2023/12/30 14:13:15;;;;;;;0.70;0.70;;;;;;;;;;5007779;28;20214;-33
2023/12/30 14:15:43;;;;;;;0.40;0.40;;;;;;;;;;5009187;28;20227;-30
2023/12/30 14:18:10;;;;;;;0.60;0.60;;;;;;;;;;4999844;28;20298;-31
2023/12/30 14:20:39;;;;;;;0.50;0.40;;;;;;;;;;5008990;28;20220;-30
2023/12/30 14:23:06;;;;;;;0.60;0.60;;;;;;;;;;5009009;28;20214;-31
2023/12/30 14:25:34;;;;;;;0.40;0.30;;;;;;;;;;5008367;28;20233;-32
2023/12/30 14:28:11;;;;;;;1.13;0.63;;;;;;;;;;5008274;28;20274;-35
2023/12/30 14:30:38;;;;;;;0.43;0.40;;;;;;;;;;5006062;28;20199;-30
2023/12/30 14:33:05;;;;;;;0.93;0.57;;;;;;;;;;5007560;28;20234;-34
2023/12/30 14:35:33;;;;;;;1.40;0.67;;;;;;;;;;5001796;28;20339;-33
2023/12/30 14:38:04;;;;;;;0.50;0.50;;;;;;;;;;5011993;28;20258;-30
2023/12/30 14:40:31;;;;;;;0.67;0.67;;;;;;;;;;5016995;28;20224;-32
2023/12/30 14:42:58;;;;;;;0.50;0.50;;;;;;;;;;5009524;28;20239;-37
2023/12/30 14:45:25;;;;;;;0.50;0.50;;;;;;;;;;5003564;28;20223;-29
2023/12/30 14:47:52;;;;;;;0.70;0.60;;;;;;;;;;5007671;28;20212;-32
2023/12/30 14:50:19;;;;;;;0.60;0.60;;;;;;;;;;5011360;28;20207;-29
2023/12/30 14:52:47;;;;;;;0.83;0.53;;;;;;;;;;4999766;28;20306;-35